Patterson, Maryland
Current Conditions -  °F | °C
As of 7:54 AM on Friday 28 Nov 2014 (Local Time) from KBWI Reporting Station
Few Clouds Few Clouds  
Wind Chill: 25°   Ceiling: Unl
Heat Index: 33°   Visibility: 10mi
Dew Point: 22°   Wind: 9mph
Humidity: 64%   Direction: 280°W
Pressure: 30.26"   Gusts: NA
Location:  39.2884°N, 76.5922°W
Report Text: KBWI 281254Z 28008KT 10SM FEW050 01/M06 A3026 RMK AO2 SLP250 VIRGA W-N T00061056
Loading
Personal Weather Stations






























Interactive Weather Map New forecast layout! Learn more

10-Day Weather Forecast

Advertisements
Track Severe Weather on mobile